CYYQ

Churchill Airport

Churchill, Manitoba, Canada
METAR CYYQ 251800Z 02009KT 15SM SCT019 OVC190 05/02 A2980 RMK SF3AC5 SLP096
Observed Flight Rules
Sep-25 @ 18:00 UTC (an hour ago) Visual Flight Rules
Wind Visibility Clouds
20° at 9 knots 15 miles
  • Scattered at 1,900' AGL
  • Overcast at 19,000' AGL
Temperatures Readings
Current 5°C / 41°F
Dewpoint 2°C / 36°F
Humidity 81%
Altimeter 29.8" Hg
Pressure 1009.6 hPa
Elevation 29
METAR CYYQ 251800Z 02009KT 15SM SCT019 OVC190 05/02 A2980 RMK SF3AC5 SLP096
Observed Flight Rules
Sep-25 @ 18:00 UTC
(an hour ago)
VFR
Wind Visibility
20° at 9 knots 15 miles
Clouds
  • Scattered at 1,900' AGL
  • Overcast at 19,000' AGL
Temperature Dewpoint
5°C / 41°F 2°C / 36°F
Humidity Altimeter Pressure
81% 29.8" Hg 1009.6 hPa